メインページ
METAR-TAF:

METAR-TAF

空港 :

女満別空港

女満別, 日本

緯度: 43-53N, 経度: 144-10E, 海抜: 33m

現時点の気象観測

当レポートは54分前の11:00(UTC)に作成
北/北西の風 3kt、西/北西からの間で変化する
気温 5°C
湿度 75%
気圧 1018 hPa
視程10km以上
高度2000ftの雲はほとんどない

METAR: RJCM 201100Z 33003KT 290V360 9999 FEW020 05/01 Q1018

時間: 20:54 (11:54 UTC)

予報

当レポートは43分前の11:11(UTC)に作成
予報は20日の 12時(UTC)から 21日の 18時(UTC)まで有効
北/北東の風 5kt
視程10km以上
高度700ftの雲はほとんどない
高度1500ftの千切れ雲あり
20日の 12時(UTC)から 20日の 14時(UTC)まで一時的に
視程: 4000m
高度300ftの雲はほとんどない
高度700ftの千切れ雲あり
20日の 14時(UTC)から 20日の 21時(UTC)まで一時的に
視程: 1500m
高度100ftの雲はほとんどない
高度300ftの千切れ雲あり
20日の 21時(UTC)から 20日の 23時(UTC)まで一時的に
高度500ftの雲はほとんどない
高度800ftの千切れ雲あり
21日の 12時(UTC)から 21日の 15時(UTC)まで徐々に
の風 4kt

TAF: RJCM 201111Z 2012/2118 03005KT 9999 FEW007 BKN015 TEMPO 2012/2014 4000 BR FEW003 BKN007 TEMPO 2014/2021 1500 BR FEW001 BKN003 TEMPO 2021/2023 FEW005 BKN008 BECMG 2112/2115 19004KT

4,000以上の空港の気象観測と天気予報(METAR報とTAF報)

利用可能な観測所は地図上に黄色い丸と赤い丸で示す。

丸の上にカーソルを重ねると観測所名を参照できる。

次にクリックすると気象観測と天気予報を参照できる。

マップの切り替え:黒色「×」印の緑ボタンをクリックして拡大、「-」印の緑ボタンをクリックして縮小、緑色の三角印をクリックして隣りの地図に切り替え


METAR-TAF: